Time;durP1;ratioP1;P1;durP2;ratioP2;P2;SDS_P1;SDS_P2;PMS_P1;PMS_P2;Temp;Humidity;BMP_temperature;BMP_pressure;BME280_temperature;BME280_humidity;BME280_pressure;Samples;Min_cycle;Max_cycle;Signal;HPM_P1;HPM_P2
2022/05/08 00:02:26;;;;;;;4.17;3.97;;;;;;;10.28;67.94;92833.69;5038244;28;20611;-78
2022/05/08 00:04:53;;;;;;;5.43;5.10;;;;;;;10.36;67.62;92854.44;5038232;28;20236;-78
2022/05/08 00:07:21;;;;;;;4.30;3.90;;;;;;;10.50;67.12;92855.56;5038015;28;20608;-79
2022/05/08 00:09:49;;;;;;;4.30;4.10;;;;;;;10.08;67.61;92827.72;5037891;28;20232;-78
2022/05/08 00:12:18;;;;;;;3.93;3.73;;;;;;;10.21;67.81;92852.47;5037933;28;20526;-79
2022/05/08 00:14:46;;;;;;;4.23;4.03;;;;;;;10.34;66.94;92857.88;5036688;28;20605;-78
2022/05/08 00:17:13;;;;;;;4.27;4.07;;;;;;;9.75;67.33;92787.69;5038002;28;20624;-78
2022/05/08 00:19:43;;;;;;;3.67;3.50;;;;;;;10.14;67.82;92842.63;5037841;28;20582;-78
2022/05/08 00:22:10;;;;;;;4.57;4.27;;;;;;;9.85;68.27;92821.81;5037774;28;20258;-79
2022/05/08 00:24:38;;;;;;;4.50;4.23;;;;;;;9.66;69.19;92803.16;5037877;28;20588;-78
2022/05/08 00:27:06;;;;;;;4.80;4.50;;;;;;;9.78;68.54;92829.66;5037008;28;20485;-79
2022/05/08 00:29:33;;;;;;;4.43;4.10;;;;;;;9.88;68.96;92841.88;5038303;28;20647;-79
2022/05/08 00:32:00;;;;;;;4.03;3.73;;;;;;;9.71;69.16;92791.22;5037809;28;20612;-79
2022/05/08 00:34:27;;;;;;;4.07;3.87;;;;;;;9.57;68.49;92788.38;5037365;28;20220;-78
2022/05/08 00:36:56;;;;;;;3.90;3.60;;;;;;;10.07;68.02;92831.13;5037658;28;20565;-78
2022/05/08 00:39:23;;;;;;;4.20;4.00;;;;;;;10.06;67.85;92840.38;5036768;28;20333;-78
2022/05/08 00:41:50;;;;;;;4.00;3.80;;;;;;;9.93;68.14;92836.66;5037627;28;20548;-78
2022/05/08 00:44:17;;;;;;;4.13;3.93;;;;;;;9.95;67.40;92818.06;5037213;28;20630;-79
2022/05/08 00:46:45;;;;;;;4.40;3.80;;;;;;;10.01;67.55;92831.34;5037359;28;20485;-78
2022/05/08 00:49:12;;;;;;;3.73;3.53;;;;;;;10.03;67.85;92842.22;5037380;28;20554;-78
2022/05/08 00:51:40;;;;;;;4.43;4.13;;;;;;;9.86;68.39;92825.97;5036644;28;20647;-79
2022/05/08 00:54:10;;;;;;;4.33;4.13;;;;;;;10.07;67.69;92848.78;5037356;28;20634;-79
2022/05/08 00:56:37;;;;;;;4.30;3.97;;;;;;;9.77;68.27;92831.34;5036890;28;20626;-78
2022/05/08 00:59:08;;;;;;;4.60;4.30;;;;;;;9.57;69.38;92844.69;5036662;28;20208;-78
2022/05/08 01:01:35;;;;;;;4.03;3.73;;;;;;;9.66;68.05;92823.34;5037085;28;20539;-79
2022/05/08 01:04:02;;;;;;;4.30;4.00;;;;;;;9.38;68.46;92780.66;5037004;28;20201;-79
2022/05/08 01:06:32;;;;;;;4.37;4.07;;;;;;;9.64;69.65;92829.31;5036377;28;20522;-78
2022/05/08 01:08:59;;;;;;;3.80;3.60;;;;;;;9.47;69.87;92835.78;5036416;28;20593;-78
2022/05/08 01:11:29;;;;;;;6.60;3.97;;;;;;;9.50;69.40;92819.72;5036133;28;20649;-78
2022/05/08 01:13:56;;;;;;;4.00;3.80;;;;;;;9.39;69.98;92825.16;5036435;28;20569;-79
2022/05/08 01:16:23;;;;;;;3.93;3.10;;;;;;;9.48;69.73;92834.09;5036232;28;20455;-78
2022/05/08 01:18:51;;;;;;;4.07;3.77;;;;;;;9.28;70.57;92822.19;5036654;28;20569;-78
2022/05/08 01:21:20;;;;;;;4.03;3.83;;;;;;;9.39;70.34;92829.38;5037072;28;20510;-78
2022/05/08 01:23:49;;;;;;;4.47;4.23;;;;;;;9.36;69.82;92821.91;5036516;28;20217;-78
2022/05/08 01:26:22;;;;;;;3.73;3.53;;;;;;;9.32;69.98;92828.75;5036478;28;20634;-79
2022/05/08 01:28:49;;;;;;;4.07;3.77;;;;;;;9.05;70.25;92812.06;5036339;28;20284;-79
2022/05/08 01:31:16;;;;;;;3.90;3.60;;;;;;;9.18;70.38;92830.94;5036232;28;20670;-78
2022/05/08 01:33:44;;;;;;;3.60;3.40;;;;;;;9.03;70.78;92828.91;5036031;28;20503;-79
2022/05/08 01:36:11;;;;;;;5.20;4.03;;;;;;;8.97;70.89;92814.84;5036061;28;20601;-79
2022/05/08 01:38:38;;;;;;;3.83;3.63;;;;;;;8.91;70.00;92789.84;5036091;28;20502;-78
2022/05/08 01:41:08;;;;;;;3.90;3.70;;;;;;;9.07;71.02;92828.75;5036425;28;20585;-79
2022/05/08 01:43:36;;;;;;;4.80;4.40;;;;;;;8.95;71.62;92818.28;5036444;28;20652;-78
2022/05/08 01:46:04;;;;;;;3.80;3.60;;;;;;;8.93;71.42;92810.78;5035980;28;20604;-79
2022/05/08 01:48:30;;;;;;;4.27;3.97;;;;;;;8.98;71.26;92824.03;5035339;28;20205;-79
2022/05/08 01:50:59;;;;;;;3.70;3.50;;;;;;;8.85;71.59;92811.88;5035861;28;20626;-79
2022/05/08 01:53:28;;;;;;;4.40;4.00;;;;;;;8.87;71.85;92815.19;5026361;28;20201;-79
2022/05/08 01:55:57;;;;;;;4.43;4.13;;;;;;;8.96;71.61;92818.22;5035792;28;20563;-78
2022/05/08 01:58:27;;;;;;;3.90;3.70;;;;;;;8.78;71.85;92811.28;5035841;28;20201;-79
2022/05/08 02:00:55;;;;;;;3.93;3.73;;;;;;;8.30;72.37;92761.63;5035616;28;20204;-79
2022/05/08 02:03:24;;;;;;;4.20;4.00;;;;;;;8.63;72.32;92812.59;5035535;28;20569;-79
2022/05/08 02:05:52;;;;;;;3.87;3.67;;;;;;;8.44;72.54;92798.13;5036457;28;20278;-79
2022/05/08 02:08:20;;;;;;;4.07;3.87;;;;;;;8.53;72.93;92815.47;5036643;28;20201;-79
2022/05/08 02:10:47;;;;;;;4.17;3.80;;;;;;;8.54;72.25;92794.44;5035958;28;20552;-79
2022/05/08 02:13:15;;;;;;;4.17;3.97;;;;;;;8.56;71.27;92782.66;5035779;28;20565;-80
2022/05/08 02:15:43;;;;;;;4.27;4.07;;;;;;;8.78;71.27;92795.34;5035791;28;20345;-79
2022/05/08 02:18:11;;;;;;;3.77;3.57;;;;;;;8.61;70.82;92761.47;5035902;28;20633;-80
2022/05/08 02:20:40;;;;;;;4.00;3.60;;;;;;;8.68;70.21;92770.44;5036047;28;20601;-79
2022/05/08 02:23:07;;;;;;;4.73;4.33;;;;;;;8.88;71.13;92819.34;5026270;28;20284;-79
2022/05/08 02:25:35;;;;;;;3.73;3.53;;;;;;;8.76;71.24;92815.53;5035466;28;20205;-79
2022/05/08 02:28:02;;;;;;;4.00;3.80;;;;;;;8.76;70.02;92819.75;5035405;28;20600;-79
2022/05/08 02:30:30;;;;;;;4.13;3.83;;;;;;;8.94;70.22;92814.94;5035707;28;20580;-79
2022/05/08 02:33:00;;;;;;;4.13;3.83;;;;;;;8.85;70.87;92812.72;5035485;28;20600;-79
2022/05/08 02:35:27;;;;;;;3.63;3.53;;;;;;;8.10;71.39;92755.56;5035423;28;20274;-79
2022/05/08 02:37:56;;;;;;;4.00;3.80;;;;;;;8.35;72.20;92784.13;5035817;28;20213;-79
2022/05/08 02:40:24;;;;;;;4.33;4.03;;;;;;;8.40;71.54;92784.81;5035784;28;20648;-79
2022/05/08 02:42:52;;;;;;;4.00;3.80;;;;;;;8.58;71.51;92804.38;5035122;28;20580;-79
2022/05/08 02:45:20;;;;;;;5.03;4.77;;;;;;;8.69;70.21;92809.06;5035810;28;20554;-79
2022/05/08 02:47:47;;;;;;;5.63;5.20;;;;;;;8.65;70.88;92812.56;5035548;28;20270;-78
2022/05/08 02:50:17;;;;;;;5.00;4.70;;;;;;;8.55;71.13;92803.66;5035015;28;20561;-79
2022/05/08 02:52:44;;;;;;;4.60;4.30;;;;;;;8.59;71.17;92816.09;5035063;28;20256;-79
2022/05/08 03:00:44;;;;;;;6.70;4.53;;;;;;;8.67;70.45;92814.16;5036156;28;20663;-78
2022/05/08 03:03:15;;;;;;;5.37;4.97;;;;;;;8.72;70.12;92817.34;5038135;28;20212;-80
2022/05/08 03:05:45;;;;;;;5.47;4.93;;;;;;;8.49;69.81;92789.56;5037673;28;20274;-78
2022/05/08 03:08:15;;;;;;;5.17;4.77;;;;;;;8.69;69.54;92814.09;5038305;28;20200;-78
2022/05/08 03:13:27;;;;;;;5.10;4.20;;;;;;;8.71;68.79;92827.47;5039675;28;20466;-79
2022/05/08 03:15:54;;;;;;;4.60;4.23;;;;;;;8.71;68.83;92818.22;5039613;28;20193;-79
2022/05/08 03:18:22;;;;;;;3.73;3.53;;;;;;;8.11;69.91;92784.88;5038939;28;20570;-79
2022/05/08 03:20:50;;;;;;;5.87;4.07;;;;;;;8.39;70.63;92825.16;5039414;28;20572;-78
2022/05/08 03:23:18;;;;;;;3.80;3.50;;;;;;;8.24;71.69;92817.16;5039253;28;20568;-79
2022/05/08 03:25:45;;;;;;;4.50;4.30;;;;;;;8.24;71.51;92814.66;5039453;28;20277;-79
2022/05/08 03:28:14;;;;;;;4.27;3.97;;;;;;;8.24;70.42;92796.19;5038965;28;20609;-79
2022/05/08 03:30:42;;;;;;;5.37;4.77;;;;;;;7.91;71.38;92762.84;5039608;28;20216;-79
2022/05/08 03:33:09;;;;;;;5.67;5.17;;;;;;;8.14;71.77;92813.28;5038544;28;20578;-79
2022/05/08 03:35:37;;;;;;;5.90;5.40;;;;;;;8.21;71.92;92803.88;5039122;28;20478;-79
2022/05/08 03:38:06;;;;;;;5.57;5.23;;;;;;;8.26;72.07;92791.97;5038920;28;20598;-79
2022/05/08 03:40:34;;;;;;;6.40;5.83;;;;;;;8.16;72.25;92818.28;5038649;28;20494;-79
2022/05/08 03:43:02;;;;;;;6.50;5.97;;;;;;;8.23;71.87;92835.66;5038712;28;20573;-79
2022/05/08 03:45:30;;;;;;;8.17;5.20;;;;;;;8.26;71.54;92830.53;5039058;28;20581;-79
2022/05/08 03:47:59;;;;;;;6.20;5.73;;;;;;;8.25;70.76;92826.38;5038661;28;20471;-79
2022/05/08 03:50:26;;;;;;;6.07;5.67;;;;;;;8.13;71.60;92821.69;5038139;28;20580;-79
2022/05/08 03:52:54;;;;;;;5.53;5.07;;;;;;;8.32;70.96;92835.41;5038634;28;20596;-79
2022/05/08 03:55:23;;;;;;;10.83;8.30;;;;;;;8.43;70.71;92836.78;5043693;28;20494;-79
2022/05/08 03:57:50;;;;;;;11.90;9.13;;;;;;;8.20;70.56;92787.09;5036223;28;20569;-79
2022/05/08 04:00:19;;;;;;;10.93;8.80;;;;;;;8.78;70.09;92833.97;5038124;28;20514;-79
2022/05/08 04:02:46;;;;;;;11.97;8.10;;;;;;;8.71;69.90;92830.81;5044573;28;20574;-78
2022/05/08 04:05:14;;;;;;;8.17;7.67;;;;;;;8.81;69.01;92843.09;5037003;28;20657;-77
2022/05/08 04:07:41;;;;;;;8.00;7.33;;;;;;;8.77;68.96;92847.44;5037575;28;20567;-79
2022/05/08 04:10:09;;;;;;;7.53;7.00;;;;;;;8.55;69.22;92831.34;5037178;28;20555;-79
2022/05/08 04:12:38;;;;;;;8.47;7.83;;;;;;;8.59;69.15;92830.38;5037480;28;20580;-79
2022/05/08 04:16:15;;;;;;;9.83;8.97;;;;;;;8.58;70.04;92842.13;5037307;28;20666;-79
2022/05/08 04:17:54;;;;;;;18.80;9.83;;;;;;;8.63;70.90;92849.53;5037759;28;20237;-78
2022/05/08 04:20:22;;;;;;;11.40;9.77;;;;;;;8.56;70.97;92833.81;5041275;28;20634;-78
2022/05/08 04:25:30;;;;;;;16.97;10.43;;;;;;;8.68;71.27;92803.19;4991837;28;20213;-79
2022/05/08 04:27:59;;;;;;;12.10;9.20;;;;;;;8.98;70.73;92805.56;5041770;28;20556;-79
2022/05/08 04:30:26;;;;;;;9.73;8.83;;;;;;;9.20;70.14;92848.50;5045284;28;20205;-78
2022/05/08 04:32:53;;;;;;;9.50;8.63;;;;;;;9.26;70.61;92845.78;5042274;28;20519;-78
2022/05/08 04:35:21;;;;;;;8.97;8.10;;;;;;;9.30;71.05;92838.06;5047288;28;20489;-78
2022/05/08 04:37:48;;;;;;;17.47;9.27;;;;;;;9.79;69.51;92839.69;5045453;28;20559;-79
2022/05/08 04:40:15;;;;;;;17.90;8.43;;;;;;;9.96;68.59;92847.47;5042754;28;20337;-78
2022/05/08 04:42:42;;;;;;;16.17;8.30;;;;;;;10.23;67.18;92845.66;5044537;28;20232;-79
2022/05/08 04:45:12;;;;;;;10.23;7.73;;;;;;;10.63;65.78;92832.31;5045721;28;20568;-81
2022/05/08 04:47:39;;;;;;;8.30;7.60;;;;;;;10.88;64.29;92851.53;5044947;28;20588;-78
2022/05/08 04:50:07;;;;;;;9.47;8.60;;;;;;;10.99;64.28;92849.41;5041841;28;20496;-78
2022/05/08 04:52:34;;;;;;;20.73;11.13;;;;;;;10.73;65.22;92817.59;5040639;28;20578;-78
2022/05/08 04:55:03;;;;;;;23.07;12.87;;;;;;;11.07;65.81;92842.34;5041097;28;20488;-78
2022/05/08 04:57:30;;;;;;;8.97;7.87;;;;;;;10.98;65.63;92833.44;5036250;28;20624;-78
2022/05/08 04:59:58;;;;;;;12.27;8.00;;;;;;;11.17;64.64;92829.25;5042723;28;20481;-77
2022/05/08 05:02:27;;;;;;;9.00;7.23;;;;;;;11.41;64.25;92839.22;5040611;27;20589;-77
2022/05/08 05:04:54;;;;;;;10.50;7.80;;;;;;;11.46;64.03;92848.25;5040182;28;20596;-77
2022/05/08 05:07:22;;;;;;;19.83;12.27;;;;;;;11.43;64.17;92853.47;5036954;28;20504;-79
2022/05/08 05:09:49;;;;;;;27.97;13.30;;;;;;;11.15;64.47;92813.31;5037224;28;20201;-78
2022/05/08 05:12:16;;;;;;;13.23;9.73;;;;;;;11.35;65.15;92845.38;5041477;28;20490;-80
2022/05/08 05:14:43;;;;;;;10.40;8.80;;;;;;;11.38;65.19;92829.25;5040881;28;20204;-78
2022/05/08 05:17:11;;;;;;;11.13;10.00;;;;;;;11.68;64.79;92840.56;5042417;28;20262;-78
2022/05/08 05:19:39;;;;;;;17.43;12.00;;;;;;;11.91;63.35;92858.16;5041258;28;20562;-78
2022/05/08 05:22:07;;;;;;;16.37;10.17;;;;;;;11.94;63.30;92845.34;5032848;28;20467;-76
2022/05/08 05:24:34;;;;;;;15.50;10.40;;;;;;;11.74;63.18;92799.03;5043085;28;20201;-79
2022/05/08 05:27:01;;;;;;;10.60;9.17;;;;;;;11.75;62.93;92815.84;5043568;28;20270;-78
2022/05/08 05:29:29;;;;;;;11.07;8.73;;;;;;;12.10;62.61;92857.34;5037889;28;20197;-77
2022/05/08 05:31:56;;;;;;;10.30;8.37;;;;;;;12.03;62.59;92852.56;5042081;28;20297;-79
2022/05/08 05:34:23;;;;;;;9.47;8.57;;;;;;;12.16;63.14;92850.31;5043190;28;20204;-80
2022/05/08 05:36:52;;;;;;;16.97;10.73;;;;;;;12.34;62.93;92851.16;5043696;28;20591;-78
2022/05/08 05:39:19;;;;;;;11.10;9.67;;;;;;;12.37;62.77;92851.84;5041581;28;20671;-78
2022/05/08 05:41:46;;;;;;;27.93;20.17;;;;;;;12.09;63.25;92821.06;5037423;28;20562;-81
2022/05/08 05:44:14;;;;;;;14.70;11.47;;;;;;;12.30;63.68;92844.59;5044460;28;20208;-77
2022/05/08 05:49:27;;;;;;;8.67;7.83;;;;;;;11.99;65.11;92832.50;5043425;28;20650;-76
2022/05/08 05:51:56;;;;;;;13.33;9.83;;;;;;;12.00;65.50;92832.41;5038715;28;20605;-76
2022/05/08 05:54:23;;;;;;;10.00;7.90;;;;;;;12.26;65.70;92828.72;5037229;28;20557;-78
2022/05/08 05:56:50;;;;;;;9.07;8.30;;;;;;;12.49;66.18;92837.81;5034318;28;20678;-76
2022/05/08 05:59:18;;;;;;;9.97;8.93;;;;;;;12.80;65.18;92825.31;5042641;28;20561;-77
2022/05/08 06:01:46;;;;;;;8.10;7.60;;;;;;;12.78;64.36;92828.84;5037328;28;20469;-77
2022/05/08 06:04:14;;;;;;;7.40;6.90;;;;;;;12.57;64.37;92805.31;5036321;28;20582;-76
2022/05/08 06:06:41;;;;;;;7.03;6.53;;;;;;;12.64;64.77;92834.53;5029011;28;20262;-75
2022/05/08 06:09:10;;;;;;;7.20;6.47;;;;;;;12.70;65.65;92813.97;5035396;28;20205;-77
2022/05/08 06:11:38;;;;;;;10.40;7.83;;;;;;;12.81;65.17;92819.34;5034870;28;20585;-77
2022/05/08 06:14:05;;;;;;;6.30;5.80;;;;;;;12.78;64.99;92811.09;5038807;28;20222;-77
2022/05/08 06:16:32;;;;;;;6.70;6.27;;;;;;;12.87;65.31;92818.25;5034656;28;20603;-78
2022/05/08 06:19:00;;;;;;;5.90;5.50;;;;;;;12.70;65.00;92793.69;5037343;28;20268;-79
2022/05/08 06:21:28;;;;;;;6.37;5.97;;;;;;;12.85;64.48;92804.81;5040094;28;20197;-78
2022/05/08 06:23:55;;;;;;;5.63;5.30;;;;;;;13.05;63.53;92811.47;5035319;28;20475;-76
2022/05/08 06:26:24;;;;;;;6.93;6.27;;;;;;;13.25;64.05;92811.31;5040262;28;20597;-77
2022/05/08 06:28:51;;;;;;;5.87;5.40;;;;;;;13.20;63.59;92809.00;5040879;28;20189;-76
2022/05/08 06:31:21;;;;;;;5.70;5.40;;;;;;;13.04;62.10;92815.72;5042894;28;20642;-77
2022/05/08 06:33:49;;;;;;;6.30;5.73;;;;;;;13.30;62.46;92809.38;5038367;28;20600;-77
2022/05/08 06:36:17;;;;;;;6.73;6.30;;;;;;;13.49;62.24;92809.28;5035489;28;20647;-77
2022/05/08 06:38:45;;;;;;;6.23;5.57;;;;;;;13.50;61.43;92821.88;5042704;28;20542;-77
2022/05/08 06:41:13;;;;;;;5.97;5.57;;;;;;;13.33;61.29;92799.09;5035224;28;20482;-77
2022/05/08 06:43:42;;;;;;;6.63;6.10;;;;;;;13.67;61.19;92805.81;5043463;28;20528;-77
2022/05/08 06:46:10;;;;;;;6.60;5.97;;;;;;;13.77;61.00;92789.19;5040989;28;20209;-75
2022/05/08 06:48:38;;;;;;;6.40;6.00;;;;;;;13.89;61.22;92803.78;5037049;28;20559;-76
2022/05/08 06:51:05;;;;;;;6.57;6.17;;;;;;;14.11;59.39;92803.47;5040222;28;20266;-76
2022/05/08 06:53:33;;;;;;;6.10;5.50;;;;;;;14.31;58.32;92810.06;5033767;28;20476;-76
2022/05/08 06:56:01;;;;;;;6.00;5.60;;;;;;;14.18;59.71;92803.97;5033043;28;20329;-76
2022/05/08 06:58:28;;;;;;;4.80;4.43;;;;;;;14.21;57.31;92814.78;5036078;28;20603;-74
2022/05/08 07:03:42;;;;;;;4.17;3.97;;;;;;;14.46;57.73;92810.06;5034122;28;20633;-76
2022/05/08 07:06:09;;;;;;;5.10;4.80;;;;;;;14.62;57.40;92794.78;5033285;28;20651;-77
2022/05/08 07:08:36;;;;;;;4.43;4.23;;;;;;;14.64;56.73;92815.88;5030530;28;20491;-74
2022/05/08 07:11:03;;;;;;;4.73;4.53;;;;;;;14.71;56.69;92809.53;5040318;28;20518;-77
2022/05/08 07:13:33;;;;;;;6.60;6.10;;;;;;;14.99;56.90;92805.44;5039114;28;20571;-76
2022/05/08 07:16:02;;;;;;;5.37;4.97;;;;;;;14.75;56.89;92803.38;5038614;28;20474;-74
2022/05/08 07:18:29;;;;;;;6.10;5.53;;;;;;;15.07;56.33;92800.75;5038536;28;20475;-75
2022/05/08 07:20:58;;;;;;;8.47;6.97;;;;;;;15.14;54.35;92807.13;5037584;28;20499;-77
2022/05/08 07:23:25;;;;;;;5.50;4.97;;;;;;;15.30;53.79;92810.44;5036133;28;20202;-75
2022/05/08 07:25:53;;;;;;;5.43;5.23;;;;;;;15.55;53.97;92813.22;5034873;28;20468;-75
2022/05/08 07:28:20;;;;;;;6.43;6.03;;;;;;;15.72;53.50;92810.50;5033173;28;20578;-76
2022/05/08 07:30:48;;;;;;;8.87;7.00;;;;;;;15.80;53.23;92807.50;5034205;28;20513;-77
2022/05/08 07:33:17;;;;;;;5.80;5.23;;;;;;;16.06;52.21;92801.66;5034254;28;20621;-75
2022/05/08 07:38:29;;;;;;;5.80;5.50;;;;;;;16.33;52.68;92806.81;5033425;28;20720;-75
2022/05/08 07:40:56;;;;;;;3.08;2.97;;;;;;;16.16;47.41;92838.44;5037014;28;20510;-76
2022/05/08 07:43:24;;;;;;;4.70;4.45;;;;;;;16.29;49.89;92812.19;5037461;28;20678;-75
2022/05/08 07:45:51;;;;;;;4.57;4.37;;;;;;;16.39;50.69;92787.78;5031419;28;20470;-75
2022/05/08 07:48:20;;;;;;;3.70;3.50;;;;;;;16.47;49.35;92803.41;5036100;28;20216;-76
2022/05/08 07:50:47;;;;;;;4.00;3.80;;;;;;;16.49;48.10;92811.78;5043075;28;20577;-74
2022/05/08 07:53:15;;;;;;;3.45;3.35;;;;;;;16.44;47.12;92803.59;5045163;28;20491;-74
2022/05/08 07:55:42;;;;;;;3.90;3.20;;;;;;;16.45;44.97;92838.41;5034068;28;20656;-75
2022/05/08 07:58:11;;;;;;;3.33;3.22;;;;;;;16.59;45.33;92817.97;5035451;28;20258;-75
2022/05/08 08:00:38;;;;;;;3.22;3.13;;;;;;;16.76;44.71;92830.50;5036601;28;20193;-75
2022/05/08 08:03:06;;;;;;;3.85;3.53;;;;;;;16.79;45.95;92814.97;5040015;28;20471;-76
2022/05/08 08:05:34;;;;;;;5.30;3.85;;;;;;;17.08;45.55;92810.56;5040273;28;20666;-76
2022/05/08 08:08:02;;;;;;;3.40;3.20;;;;;;;17.08;45.07;92820.78;5041259;28;20526;-76
2022/05/08 08:10:30;;;;;;;3.00;2.90;;;;;;;17.19;43.63;92827.75;5038240;28;20574;-76
2022/05/08 08:12:57;;;;;;;4.47;4.28;;;;;;;17.27;44.26;92805.09;5043244;28;20611;-76
2022/05/08 08:15:25;;;;;;;3.15;3.05;;;;;;;17.36;43.46;92824.94;5042805;28;20646;-76
2022/05/08 08:17:52;;;;;;;2.63;2.53;;;;;;;17.47;42.07;92831.88;5045923;28;20216;-76
2022/05/08 08:20:19;;;;;;;4.25;3.95;;;;;;;17.66;43.90;92805.06;5035885;28;20480;-75
2022/05/08 08:22:48;;;;;;;3.58;3.40;;;;;;;17.57;43.63;92787.78;5034489;28;20528;-75
2022/05/08 08:25:16;;;;;;;3.95;3.75;;;;;;;17.79;44.69;92797.41;5037477;28;20461;-75
2022/05/08 08:27:43;;;;;;;4.90;4.50;;;;;;;17.96;44.67;92799.63;5035565;28;20659;-75
2022/05/08 08:30:11;;;;;;;4.10;3.60;;;;;;;18.09;44.48;92794.47;5035185;28;20686;-76
2022/05/08 08:32:38;;;;;;;3.80;3.60;;;;;;;18.18;42.49;92809.22;5037444;28;20633;-74
2022/05/08 08:35:07;;;;;;;2.78;2.63;;;;;;;18.25;40.51;92822.41;5035226;28;20670;-75
2022/05/08 08:37:35;;;;;;;5.35;4.15;;;;;;;18.43;41.35;92818.56;5036343;28;20569;-77
2022/05/08 08:40:05;;;;;;;3.40;3.30;;;;;;;18.47;41.42;92794.41;5035577;28;20229;-76
2022/05/08 08:42:33;;;;;;;3.13;3.03;;;;;;;18.32;38.36;92833.81;5033483;28;20201;-73
2022/05/08 08:47:54;;;;;;;2.72;2.63;;;;;;;18.42;36.93;92839.97;5038498;28;20493;-74
2022/05/08 08:50:24;;;;;;;2.90;2.75;;;;;;;18.50;37.13;92847.91;5034645;28;20560;-73
2022/05/08 08:52:52;;;;;;;3.17;3.05;;;;;;;18.68;37.55;92833.06;5034492;28;20615;-73
2022/05/08 08:55:22;;;;;;;3.30;3.10;;;;;;;18.85;38.39;92813.03;5036755;28;20494;-73
2022/05/08 08:57:50;;;;;;;3.72;3.53;;;;;;;18.95;37.70;92820.84;5044808;28;20197;-74
2022/05/08 09:00:21;;;;;;;3.80;3.60;;;;;;;19.00;38.48;92823.91;5035496;28;20738;-73
2022/05/08 09:02:52;;;;;;;3.15;3.05;;;;;;;18.92;37.00;92821.91;5039777;28;20581;-74
2022/05/08 09:05:19;;;;;;;6.68;3.45;;;;;;;19.03;38.14;92819.41;5032053;28;20245;-73
2022/05/08 09:07:48;;;;;;;6.50;3.08;;;;;;;19.18;38.34;92811.53;5036017;28;20558;-73
2022/05/08 09:10:18;;;;;;;4.07;3.88;;;;;;;19.41;41.09;92778.19;5035859;28;20561;-74
2022/05/08 09:13:03;;;;;;;3.92;3.72;;;;;;;19.76;41.66;92773.03;5036714;28;20531;-74
2022/05/08 09:15:31;;;;;;;2.97;2.88;;;;;;;19.97;41.64;92774.88;5036423;28;20593;-73
2022/05/08 09:18:00;;;;;;;3.22;3.13;;;;;;;19.82;39.76;92758.94;5036522;28;20270;-74
2022/05/08 09:20:30;;;;;;;3.58;3.38;;;;;;;19.88;39.16;92785.84;5037238;28;20213;-74
2022/05/08 09:23:14;;;;;;;3.42;3.33;;;;;;;20.14;37.83;92793.19;5042977;28;20556;-73
2022/05/08 09:25:44;;;;;;;2.00;1.90;;;;;;;19.94;31.99;92827.25;5036712;28;20542;-74
2022/05/08 09:28:13;;;;;;;2.33;2.08;;;;;;;19.98;31.61;92864.53;5043797;28;20596;-74
2022/05/08 09:31:06;;;;;;;1.92;1.83;;;;;;;20.20;32.35;92851.72;5031339;28;20389;-72
2022/05/08 09:33:35;;;;;;;2.63;2.38;;;;;;;20.63;33.29;92822.78;5029130;28;20562;-73
2022/05/08 09:36:04;;;;;;;2.88;2.38;;;;;;;20.92;35.28;92797.38;5041899;28;20208;-71
2022/05/08 09:38:46;;;;;;;1.92;1.83;;;;;;;21.17;32.36;92816.84;5047460;28;20197;-73
2022/05/08 09:41:26;;;;;;;2.42;2.33;;;;;;;21.34;33.00;92816.31;5044521;28;20193;-73
2022/05/08 09:44:08;;;;;;;3.97;3.78;;;;;;;21.56;32.97;92813.63;5034149;28;20554;-74
2022/05/08 09:46:37;;;;;;;3.20;3.08;;;;;;;21.67;35.13;92787.84;5037089;28;20266;-73
2022/05/08 09:49:06;;;;;;;2.50;2.40;;;;;;;21.41;35.71;92750.59;5038226;28;20577;-71
2022/05/08 09:51:34;;;;;;;3.20;3.10;;;;;;;21.58;35.76;92770.59;5034605;28;20496;-72
2022/05/08 09:54:02;;;;;;;4.10;3.80;;;;;;;21.68;35.17;92771.47;5033786;28;20224;-72
2022/05/08 09:56:30;;;;;;;2.20;2.10;;;;;;;21.71;33.54;92770.38;5031518;28;20565;-74
2022/05/08 09:59:00;;;;;;;2.20;2.10;;;;;;;22.06;33.92;92782.91;5046288;28;20312;-69
2022/05/08 10:01:27;;;;;;;2.35;2.25;;;;;;;21.89;31.90;92799.72;5038542;28;20558;-73
2022/05/08 10:03:58;;;;;;;2.05;1.95;;;;;;;21.75;31.76;92797.47;5029215;28;20464;-74
2022/05/08 10:06:28;;;;;;;2.25;2.15;;;;;;;21.79;32.06;92793.72;5034127;28;20568;-73
2022/05/08 10:13:53;;;;;;;2.60;2.50;;;;;;;21.85;32.16;92790.66;5044492;28;20201;-73
2022/05/08 10:14:33;;;;;;;2.83;2.72;;;;;;;21.92;31.60;92784.84;5030494;28;20240;-75
2022/05/08 10:17:04;;;;;;;2.45;2.00;;;;;;;22.20;32.42;92767.09;5036613;28;20534;-74
2022/05/08 10:19:57;;;;;;;2.58;2.22;;;;;;;22.64;30.88;92794.22;5034733;28;20654;-74
2022/05/08 10:22:25;;;;;;;3.40;2.75;;;;;;;23.20;33.30;92770.44;5034809;28;20604;-72
2022/05/08 10:24:56;;;;;;;2.40;2.20;;;;;;;23.40;32.83;92769.47;5029446;28;20473;-72
2022/05/08 10:27:26;;;;;;;7.03;3.15;;;;;;;23.06;33.07;92702.88;5031264;28;20604;-73
2022/05/08 10:30:24;;;;;;;3.03;2.30;;;;;;;22.99;31.93;92763.63;5033592;28;20654;-72
2022/05/08 10:32:52;;;;;;;2.60;2.50;;;;;;;23.05;32.71;92772.59;5029642;28;20611;-73
2022/05/08 10:35:22;;;;;;;2.55;2.42;;;;;;;22.95;31.57;92757.13;5033286;28;20217;-71
2022/05/08 10:37:51;;;;;;;5.93;5.43;;;;;;;22.94;32.35;92752.94;5039864;28;20215;-74
2022/05/08 10:47:36;;;;;;;1.92;1.83;;;;;;;22.66;29.99;92797.47;5034858;28;20619;-72
2022/05/08 10:50:06;;;;;;;1.90;1.80;;;;;;;22.71;29.81;92788.44;5034928;28;20570;-72
2022/05/08 10:52:34;;;;;;;1.80;1.80;;;;;;;22.83;30.36;92776.25;5035110;28;20510;-72
2022/05/08 10:55:03;;;;;;;2.15;2.03;;;;;;;22.83;29.71;92794.28;5035156;28;20225;-74
2022/05/08 10:57:30;;;;;;;1.63;1.52;;;;;;;22.59;27.68;92806.69;5040140;28;20633;-73
2022/05/08 10:59:58;;;;;;;1.67;1.67;;;;;;;22.53;28.61;92799.50;5034110;28;20606;-73
2022/05/08 11:02:40;;;;;;;1.50;1.50;;;;;;;22.74;28.46;92797.66;5033876;28;20583;-73
2022/05/08 11:05:09;;;;;;;2.10;1.73;;;;;;;22.62;27.52;92804.66;5030247;28;20665;-71
2022/05/08 11:07:38;;;;;;;1.42;1.35;;;;;;;23.07;27.52;92801.63;5030109;28;20557;-71
2022/05/08 11:10:15;;;;;;;2.40;2.30;;;;;;;23.45;28.44;92801.63;5030424;28;20470;-72
2022/05/08 11:12:57;;;;;;;1.88;1.83;;;;;;;23.00;26.84;92810.84;5027589;28;20563;-72
2022/05/08 11:15:25;;;;;;;1.52;1.52;;;;;;;22.85;27.39;92805.28;5030704;28;20472;-74
2022/05/08 11:18:09;;;;;;;1.58;1.58;;;;;;;22.76;28.51;92792.38;5032781;28;20585;-73
